createdAt,value
2018-08-28T00:01:25.400Z,3.88
2018-08-28T00:07:26.654Z,3.74
2018-08-28T00:11:27.904Z,3.95
2018-08-28T00:13:29.109Z,4.03
2018-08-28T00:17:30.361Z,4.24
2018-08-28T00:23:31.640Z,4.38
2018-08-28T00:27:32.951Z,4.88
2018-08-28T00:33:34.234Z,4.69
2018-08-28T00:37:35.444Z,3.1
2018-08-28T00:39:36.814Z,2.94
2018-08-28T00:43:38.076Z,3.23
2018-08-28T00:49:39.358Z,3.98
2018-08-28T00:53:40.632Z,3.42
2018-08-28T00:59:41.937Z,3.97
2018-08-28T01:03:43.212Z,3.57
2018-08-28T01:05:44.392Z,3.2
2018-08-28T01:09:45.620Z,3.84
2018-08-28T01:15:46.888Z,3.31
2018-08-28T01:19:48.195Z,3.89
2018-08-28T01:25:49.490Z,4.01
2018-08-28T01:29:50.762Z,4.13
2018-08-28T01:31:51.942Z,4.01
2018-08-28T01:35:53.240Z,3.39
2018-08-28T01:41:54.544Z,4.36
2018-08-28T01:45:55.786Z,3.55
2018-08-28T01:51:57.048Z,5.83
2018-08-28T01:55:58.352Z,3.71
2018-08-28T01:57:59.574Z,3.93
2018-08-28T02:02:00.854Z,3.41
2018-08-28T02:08:02.124Z,4.52
2018-08-28T02:12:03.425Z,4.11
2018-08-28T02:18:04.771Z,4.54
2018-08-28T02:24:06.065Z,4.17
2018-08-28T02:28:07.445Z,3.73
2018-08-28T02:34:08.619Z,4.9
2018-08-28T02:38:09.881Z,2.73
2018-08-28T02:44:11.099Z,3.76
2018-08-28T02:50:12.430Z,4.2
2018-08-28T02:54:13.705Z,3.79
2018-08-28T03:00:14.956Z,3.27
2018-08-28T03:04:16.221Z,3.92
2018-08-28T03:10:17.484Z,3.95
2018-08-28T03:16:18.776Z,4.06
2018-08-28T03:20:20.005Z,4.95
2018-08-28T03:26:21.220Z,4.16
2018-08-28T03:30:22.509Z,3.08
2018-08-28T03:36:23.781Z,4.11
2018-08-28T03:42:25.069Z,3.34
2018-08-28T03:46:26.337Z,4.52
2018-08-28T03:52:27.695Z,3.69
2018-08-28T03:56:29.028Z,4.27
2018-08-28T04:02:30.244Z,3.62
2018-08-28T04:08:31.545Z,3.8
2018-08-28T04:12:32.764Z,4.36
2018-08-28T04:18:34.057Z,4.28
2018-08-28T04:22:35.381Z,4.95
2018-08-28T04:28:36.595Z,5.31
2018-08-28T04:34:37.890Z,4.38
2018-08-28T04:38:39.176Z,4.76
2018-08-28T04:44:40.503Z,5.1
2018-08-28T04:48:41.779Z,5.31
2018-08-28T04:50:42.915Z,4.02
2018-08-28T04:54:44.181Z,5.68
2018-08-28T05:00:45.575Z,8.29
2018-08-28T05:04:46.706Z,4.81
2018-08-28T05:10:47.943Z,3.79
2018-08-28T05:21:14.350Z,5.25
2018-08-28T05:21:14.418Z,3.76
2018-08-28T05:25:15.744Z,4.66
2018-08-28T05:27:16.962Z,5.53
2018-08-28T05:31:18.159Z,6.15
2018-08-28T05:37:19.505Z,3.69
2018-08-28T05:41:20.803Z,4.93
2018-08-28T05:47:22.023Z,4.94
2018-08-28T05:51:23.256Z,5.15
2018-08-28T05:53:24.467Z,6.48
2018-08-28T05:57:25.731Z,7.28
2018-08-28T06:03:27.334Z,4.52
2018-08-28T06:07:28.310Z,4.86
2018-08-28T06:13:29.534Z,4.54
2018-08-28T06:17:30.896Z,6.22
2018-08-28T06:19:32.087Z,3.65
2018-08-28T06:23:33.283Z,5.58
2018-08-28T06:29:34.666Z,6.63
2018-08-28T06:33:35.855Z,6.07
2018-08-28T06:39:37.151Z,9.9
2018-08-28T06:43:38.409Z,6.22
2018-08-28T06:45:39.594Z,6.32
2018-08-28T06:49:40.978Z,6.74
2018-08-28T06:55:42.122Z,8.51
2018-08-28T06:59:43.401Z,10.24
2018-08-28T07:05:44.669Z,5.54
2018-08-28T07:09:45.887Z,7.15
2018-08-28T07:11:47.098Z,5.37
2018-08-28T07:15:48.351Z,6.81
2018-08-28T07:21:49.693Z,6.46
2018-08-28T07:25:51.030Z,6.18
2018-08-28T07:31:52.261Z,6.21
2018-08-28T07:35:53.496Z,6.58
2018-08-28T07:37:54.675Z,6.68
2018-08-28T07:41:56.004Z,6.7
2018-08-28T07:47:57.252Z,6.92
2018-08-28T07:51:58.534Z,7.24
2018-08-28T07:57:59.894Z,4.93
2018-08-28T08:02:01.148Z,6.42
2018-08-28T08:04:02.345Z,5.47
2018-08-28T08:08:03.589Z,4.62
2018-08-28T08:14:04.850Z,5.48
2018-08-28T08:18:06.109Z,5.31
2018-08-28T08:24:07.414Z,4.91
2018-08-28T08:28:08.868Z,4.43
2018-08-28T08:30:09.876Z,4.82
2018-08-28T08:34:11.214Z,5.89
2018-08-28T08:40:12.480Z,5.96
2018-08-28T08:44:13.668Z,5.07
2018-08-28T08:50:14.922Z,4.85
2018-08-28T08:54:16.257Z,4.15
2018-08-28T08:56:17.400Z,5.38
2018-08-28T09:00:18.723Z,3.57
2018-08-28T09:06:19.965Z,4.23
2018-08-28T09:10:21.205Z,3.67
2018-08-28T09:16:22.484Z,3.95
2018-08-28T09:22:23.815Z,3.72
2018-08-28T09:26:25.036Z,5.53
2018-08-28T09:32:26.492Z,3.41
2018-08-28T09:36:27.624Z,3.62
2018-08-28T09:42:28.834Z,4.25
2018-08-28T09:48:30.239Z,4.12
2018-08-28T09:52:34.421Z,3.94
2018-08-28T09:58:35.654Z,3
2018-08-28T10:02:36.904Z,3.62
2018-08-28T10:08:38.109Z,3.64
2018-08-28T10:14:39.400Z,4.06
2018-08-28T10:18:40.611Z,4.1
2018-08-28T10:24:41.865Z,3.25
2018-08-28T10:28:43.157Z,3.25
2018-08-28T10:34:44.472Z,3.13
2018-08-28T10:40:45.738Z,4.19
2018-08-28T10:44:47.040Z,3.42
2018-08-28T10:50:48.275Z,3.42
2018-08-28T10:54:49.508Z,3.97
2018-08-28T11:00:50.760Z,3.68
2018-08-28T11:06:52.153Z,3.84
2018-08-28T11:10:53.433Z,4.33
2018-08-28T11:16:54.746Z,3.44
2018-08-28T11:20:56.001Z,4.17
2018-08-28T11:22:57.445Z,3.96
2018-08-28T11:26:58.437Z,2.69
2018-08-28T11:32:59.754Z,3.56
2018-08-28T11:37:00.990Z,3.08
2018-08-28T11:43:02.293Z,2.96
2018-08-28T11:47:03.663Z,3.23
2018-08-28T11:49:04.771Z,2.83
2018-08-28T11:53:06.054Z,3.31
2018-08-28T11:59:07.355Z,3.09
2018-08-28T12:03:08.573Z,2.95
2018-08-28T12:09:09.849Z,3.44
2018-08-28T12:13:11.240Z,2.84
2018-08-28T12:15:12.313Z,2.97
2018-08-28T12:19:13.721Z,2.72
2018-08-28T12:25:14.953Z,2.82
2018-08-28T12:29:16.209Z,3.61
2018-08-28T12:35:17.478Z,2.24
2018-08-28T12:39:18.819Z,3.03
2018-08-28T12:41:20.051Z,2.59
2018-08-28T12:45:21.229Z,2.79
2018-08-28T12:51:22.553Z,2.45
2018-08-28T12:55:23.715Z,3.29
2018-08-28T13:01:24.974Z,2.61
2018-08-28T13:05:26.240Z,3.21
2018-08-28T13:07:27.511Z,3.43
2018-08-28T13:11:28.682Z,3.01
2018-08-28T13:17:30.015Z,2.86
2018-08-28T13:21:31.201Z,3
2018-08-28T13:27:32.494Z,2.77
2018-08-28T13:31:33.751Z,3.14
2018-08-28T13:33:34.934Z,2.9
2018-08-28T13:37:36.208Z,2.51
2018-08-28T13:43:37.502Z,2.97
2018-08-28T13:47:38.779Z,2.93
2018-08-28T13:53:40.073Z,3.35
2018-08-28T13:59:41.319Z,3.08
2018-08-28T14:03:46.734Z,2.94
2018-08-28T14:09:43.860Z,3.41
2018-08-28T14:13:45.254Z,3.42
2018-08-28T14:29:50.585Z,2.81
2018-08-28T14:29:50.645Z,2.49
2018-08-28T14:29:50.779Z,2.5
2018-08-28T14:35:52.059Z,2.67
2018-08-28T14:39:53.331Z,3.05
2018-08-28T14:45:54.621Z,2.81
2018-08-28T14:51:55.905Z,3.35
2018-08-28T14:55:57.275Z,3.03
2018-08-28T15:01:58.508Z,3.05
2018-08-28T15:05:59.837Z,3.55
2018-08-28T15:12:01.035Z,3.23
2018-08-28T15:18:02.362Z,4.34
2018-08-28T15:22:03.648Z,3.74
2018-08-28T15:28:04.953Z,3.33
2018-08-28T15:32:06.235Z,4.23
2018-08-28T15:34:07.464Z,2.82
2018-08-28T15:38:08.797Z,3.84
2018-08-28T15:44:10.126Z,2.71
2018-08-28T15:48:11.418Z,3.32
2018-08-28T15:54:12.836Z,3.13
2018-08-28T15:58:14.080Z,2.98
2018-08-28T16:00:15.278Z,3.29
2018-08-28T16:04:16.506Z,3.02
2018-08-28T16:10:17.799Z,3.79
2018-08-28T16:14:19.001Z,3.42
2018-08-28T16:20:20.280Z,3.93
2018-08-28T16:24:21.564Z,10.72
2018-08-28T16:26:22.773Z,8.79
2018-08-28T16:30:24.026Z,9
2018-08-28T16:36:25.269Z,4.53
2018-08-28T16:40:26.538Z,3.74
2018-08-28T16:46:27.759Z,5.48
2018-08-28T16:50:28.983Z,4.73
2018-08-28T16:52:30.179Z,4.64
2018-08-28T16:56:31.459Z,4.24
2018-08-28T17:03:13.922Z,3.5
2018-08-28T17:07:14.450Z,3.52
2018-08-28T17:13:14.957Z,3.03
2018-08-28T17:17:16.177Z,3.54
2018-08-28T17:23:16.805Z,3.53
2018-08-28T17:27:17.230Z,4.23
2018-08-28T17:33:17.748Z,3.86
2018-08-28T17:39:18.254Z,4.79
2018-08-28T17:43:18.802Z,6.03
2018-08-28T17:49:19.430Z,5.01
2018-08-28T17:53:19.868Z,5.72
2018-08-28T17:55:20.377Z,3.1
2018-08-28T17:59:21.009Z,4.83
2018-08-28T18:05:21.561Z,4.37
2018-08-28T18:09:22.163Z,5.15
2018-08-28T18:15:22.982Z,5.19
2018-08-28T18:19:23.558Z,5.58
2018-08-28T18:21:24.090Z,3.24
2018-08-28T18:25:24.798Z,4.81
2018-08-28T18:31:25.328Z,3.66
2018-08-28T18:35:25.862Z,3.9
2018-08-28T18:41:26.426Z,4.64
2018-08-28T18:47:26.915Z,5.7
2018-08-28T18:51:27.428Z,3.28
2018-08-28T18:57:27.984Z,4.28
2018-08-28T19:01:28.475Z,4.6
2018-08-28T19:07:29.007Z,4.46
2018-08-28T19:13:29.685Z,3.71
2018-08-28T19:17:30.183Z,4.6
2018-08-28T19:23:30.756Z,4.41
2018-08-28T19:27:31.230Z,5.12
2018-08-28T19:29:31.819Z,4.38
2018-08-28T19:33:32.278Z,4.43
2018-08-28T19:39:32.745Z,5.94
2018-08-28T19:43:33.456Z,5.14
2018-08-28T19:49:33.897Z,5.82
2018-08-28T19:53:34.418Z,6.44
2018-08-28T19:55:34.859Z,5.87
2018-08-28T19:59:35.369Z,5.58
2018-08-28T20:05:35.837Z,4.87
2018-08-28T20:09:36.357Z,6.36
2018-08-28T20:15:36.890Z,5.48
2018-08-28T20:21:37.512Z,6.15
2018-08-28T20:25:38.029Z,5.58
2018-08-28T20:31:38.462Z,5.94
2018-08-28T20:35:39.067Z,6.63
2018-08-28T20:41:39.668Z,4.9
2018-08-28T20:47:40.110Z,4.78
2018-08-28T20:51:40.617Z,4.64
2018-08-28T20:57:41.217Z,4.69
2018-08-28T21:01:41.789Z,5.63
2018-08-28T21:03:42.234Z,5.46
2018-08-28T21:07:42.769Z,4.52
2018-08-28T21:13:43.374Z,4.95
2018-08-28T21:17:43.937Z,5.24
2018-08-28T21:23:44.605Z,8.01
2018-08-28T21:27:45.277Z,7.61
2018-08-28T21:29:45.822Z,6.06
2018-08-28T21:33:46.346Z,6.6
2018-08-28T21:39:46.924Z,5.87
2018-08-28T21:43:47.435Z,7.04
2018-08-28T21:49:48.021Z,6.13
2018-08-28T21:53:48.451Z,5.33
2018-08-28T21:55:48.935Z,4.95
2018-08-28T21:59:49.504Z,5.19
2018-08-28T22:05:50.003Z,5.65
2018-08-28T22:09:50.494Z,5.6
2018-08-28T22:15:51.187Z,5.75
2018-08-28T22:21:51.920Z,5.24
2018-08-28T22:25:52.420Z,5.53
2018-08-28T22:31:53.020Z,4.91
2018-08-28T22:35:53.506Z,5.11
2018-08-28T22:41:54.033Z,6.18
2018-08-28T22:47:54.724Z,5.53
2018-08-28T22:51:55.228Z,6
2018-08-28T22:57:55.801Z,6.52
2018-08-28T23:01:56.334Z,6.59
2018-08-28T23:03:56.877Z,5.83
2018-08-28T23:07:57.338Z,5.07
2018-08-28T23:13:57.855Z,6.29
2018-08-28T23:17:58.444Z,5.52
2018-08-28T23:23:59.748Z,5.9
2018-08-28T23:28:00.524Z,5.06
2018-08-28T23:30:00.990Z,5.62
2018-08-28T23:34:01.541Z,5.52
2018-08-28T23:40:02.207Z,5.63
2018-08-28T23:44:02.689Z,4.65
2018-08-28T23:50:03.168Z,5.15
2018-08-28T23:56:03.637Z,5.29
